Time;durP1;ratioP1;P1;durP2;ratioP2;P2;SDS_P1;SDS_P2;PMS_P1;PMS_P2;Temp;Humidity;BMP_temperature;BMP_pressure;BME280_temperature;BME280_humidity;BME280_pressure;Samples;Min_cycle;Max_cycle;Signal;HPM_P1;HPM_P2
2022/01/03 00:00:53;;;;;;;622.80;272.55;;;2.70;99.90;;;;;;5138192;27;20764;-61
2022/01/03 00:03:20;;;;;;;551.08;239.13;;;2.60;99.90;;;;;;5137604;27;20034;-61
2022/01/03 00:05:46;;;;;;;553.92;240.52;;;2.60;99.90;;;;;;5137867;27;20023;-61
2022/01/03 00:08:13;;;;;;;612.00;270.40;;;2.60;99.90;;;;;;5137830;27;20074;-61
2022/01/03 00:10:40;;;;;;;673.40;308.00;;;2.60;99.90;;;;;;5138066;27;20118;-60
2022/01/03 00:13:06;;;;;;;722.92;330.20;;;2.60;99.90;;;;;;5137881;27;20038;-60
2022/01/03 00:15:32;;;;;;;650.53;297.88;;;2.50;99.90;;;;;;5138015;27;20095;-60
2022/01/03 00:17:58;;;;;;;632.05;278.42;;;2.40;99.90;;;;;;5137762;27;20038;-61
2022/01/03 00:20:26;;;;;;;583.70;255.45;;;2.40;99.90;;;;;;5137776;27;20040;-61
2022/01/03 00:23:04;;;;;;;534.58;232.63;;;2.40;99.90;;;;;;5137634;27;20039;-61
2022/01/03 00:25:34;;;;;;;541.15;233.13;;;2.30;99.90;;;;;;5137786;27;20050;-61
2022/01/03 00:28:21;;;;;;;532.17;235.97;;;2.30;99.90;;;;;;5137747;27;20387;-61
2022/01/03 00:30:50;;;;;;;554.88;243.23;;;2.30;99.90;;;;;;5137781;27;20373;-61
2022/01/03 00:33:19;;;;;;;610.75;274.92;;;2.20;99.90;;;;;;5137345;27;20035;-61
2022/01/03 00:35:45;;;;;;;627.13;284.27;;;2.20;99.90;;;;;;5137395;27;20047;-60
2022/01/03 00:38:12;;;;;;;630.47;287.80;;;2.10;99.90;;;;;;5137521;27;20031;-61
2022/01/03 00:40:40;;;;;;;656.28;298.88;;;2.10;99.90;;;;;;5137349;27;20039;-60
2022/01/03 00:43:06;;;;;;;591.30;269.08;;;2.10;99.90;;;;;;5137174;27;20091;-60
2022/01/03 00:45:32;;;;;;;620.00;283.58;;;2.10;99.90;;;;;;5118877;27;20088;-61
2022/01/03 00:47:58;;;;;;;554.55;242.18;;;2.00;99.90;;;;;;5137123;27;20038;-61
2022/01/03 00:50:25;;;;;;;504.75;227.55;;;2.00;99.90;;;;;;5137187;27;20062;-61
2022/01/03 00:52:52;;;;;;;475.05;207.48;;;2.10;99.90;;;;;;5118756;27;20043;-61
2022/01/03 00:55:18;;;;;;;466.80;207.32;;;2.10;99.90;;;;;;5136918;27;20039;-61
2022/01/03 00:58:23;;;;;;;512.67;232.18;;;2.10;99.90;;;;;;5137000;27;20046;-60
2022/01/03 01:00:54;;;;;;;587.47;269.55;;;2.00;99.90;;;;;;5105651;27;20042;-61
2022/01/03 01:03:21;;;;;;;;;;;2.10;99.90;;;;;;5118943;27;20441;-61
2022/01/03 01:05:53;;;;;;;567.33;241.40;;;2.10;99.90;;;;;;5136644;27;20019;-61
2022/01/03 01:08:22;;;;;;;443.77;190.98;;;2.10;99.90;;;;;;5094648;28;20039;-61
2022/01/03 01:10:52;;;;;;;409.98;182.38;;;2.00;99.90;;;;;;5094696;28;20411;-61
2022/01/03 01:13:20;;;;;;;429.35;185.18;;;2.00;99.90;;;;;;5094555;28;20220;-61
2022/01/03 01:15:47;;;;;;;476.80;203.68;;;2.00;99.90;;;;;;5093675;28;20120;-60
2022/01/03 01:18:14;;;;;;;480.35;202.40;;;1.80;99.90;;;;;;5077294;28;20078;-61
2022/01/03 01:20:40;;;;;;;555.03;241.63;;;1.70;99.90;;;;;;5077454;28;20032;-61
2022/01/03 01:23:09;;;;;;;563.38;239.35;;;1.70;99.90;;;;;;5077149;28;20036;-60
2022/01/03 01:28:12;;;;;;;668.25;294.42;;;1.80;99.90;;;;;;5095498;28;20032;-60
2022/01/03 01:30:39;;;;;;;643.83;284.85;;;1.80;99.90;;;;;;5077026;28;20453;-60
2022/01/03 01:33:12;;;;;;;780.15;353.92;;;1.80;99.90;;;;;;5072383;28;20032;-60
2022/01/03 01:35:55;;;;;;;697.17;304.42;;;1.90;99.90;;;;;;5077055;28;20130;-60
2022/01/03 01:38:31;;;;;;;702.53;287.63;;;1.90;99.90;;;;;;5076975;28;20078;-60
2022/01/03 01:40:59;;;;;;;540.10;220.18;;;1.90;99.90;;;;;;5076974;28;20429;-60
2022/01/03 01:43:36;;;;;;;454.40;189.98;;;1.90;99.90;;;;;;5095051;28;20562;-60
2022/01/03 01:46:10;;;;;;;431.75;180.35;;;1.90;99.90;;;;;;5076874;28;20123;-60
2022/01/03 01:48:40;;;;;;;450.63;192.95;;;1.90;99.90;;;;;;5077223;28;20039;-60
2022/01/03 01:51:09;;;;;;;478.90;197.77;;;1.80;99.90;;;;;;5076899;28;20036;-60
2022/01/03 01:53:47;;;;;;;457.58;192.95;;;1.60;99.90;;;;;;5076770;28;20428;-60
2022/01/03 01:56:22;;;;;;;521.65;215.80;;;1.60;99.90;;;;;;5076875;28;20337;-61
2022/01/03 01:58:58;;;;;;;524.17;216.93;;;1.70;99.90;;;;;;5076601;28;20119;-61
2022/01/03 02:01:40;;;;;;;570.42;240.05;;;1.60;99.90;;;;;;5076732;28;20071;-61
2022/01/03 02:04:26;;;;;;;602.88;266.05;;;1.60;99.90;;;;;;5076705;28;20066;-61
2022/01/03 02:06:56;;;;;;;609.58;257.50;;;1.60;99.90;;;;;;5062052;28;20071;-61
2022/01/03 02:09:42;;;;;;;598.45;257.90;;;1.50;99.90;;;;;;5096854;28;20114;-62
2022/01/03 02:12:16;;;;;;;609.67;257.95;;;1.50;99.90;;;;;;5096717;28;20400;-61
2022/01/03 02:14:44;;;;;;;611.63;256.17;;;1.50;99.90;;;;;;5113642;28;20042;-61
2022/01/03 02:17:12;;;;;;;585.05;251.95;;;1.50;99.90;;;;;;5098396;27;20126;-60
2022/01/03 02:19:40;;;;;;;592.88;253.88;;;1.40;99.90;;;;;;5117081;27;20062;-61
2022/01/03 02:22:10;;;;;;;621.75;292.83;;;1.40;99.90;;;;;;5116976;27;20060;-60
2022/01/03 02:24:44;;;;;;;618.95;288.88;;;1.50;99.90;;;;;;5117196;27;20042;-61
2022/01/03 02:27:10;;;;;;;607.47;282.67;;;1.50;99.90;;;;;;5116933;27;20031;-61
2022/01/03 02:29:36;;;;;;;562.13;244.77;;;1.50;99.90;;;;;;5135605;27;20027;-61
2022/01/03 02:32:02;;;;;;;558.10;247.98;;;1.50;99.90;;;;;;5109341;28;20504;-61
2022/01/03 02:34:29;;;;;;;552.42;251.48;;;1.50;99.90;;;;;;5114652;28;20163;-61
2022/01/03 02:36:57;;;;;;;490.05;218.57;;;1.50;99.90;;;;;;5096537;28;20355;-61
2022/01/03 02:39:23;;;;;;;408.02;181.15;;;1.50;99.90;;;;;;5114922;28;20039;-61
2022/01/03 02:41:49;;;;;;;396.90;175.55;;;1.60;99.90;;;;;;5096341;28;20039;-61
2022/01/03 02:44:18;;;;;;;391.13;173.35;;;1.70;99.90;;;;;;5113285;28;20035;-61
2022/01/03 02:46:44;;;;;;;404.02;183.65;;;1.70;99.90;;;;;;5113661;28;20066;-61
2022/01/03 02:49:10;;;;;;;422.15;196.43;;;1.60;99.90;;;;;;5096497;28;20053;-61
2022/01/03 02:51:37;;;;;;;415.98;184.48;;;1.40;99.90;;;;;;5114708;28;20119;-61
2022/01/03 02:54:04;;;;;;;414.02;183.50;;;1.40;99.90;;;;;;5096590;28;20036;-61
2022/01/03 02:56:34;;;;;;;394.77;178.68;;;1.50;99.90;;;;;;5114663;28;20035;-61
2022/01/03 02:59:02;;;;;;;389.48;175.10;;;1.40;99.90;;;;;;5096304;28;20532;-61
2022/01/03 03:01:30;;;;;;;392.23;168.90;;;1.50;99.90;;;;;;5113186;28;20462;-61
2022/01/03 03:03:57;;;;;;;437.25;197.70;;;1.60;99.90;;;;;;5114527;28;20031;-60
2022/01/03 03:06:25;;;;;;;431.58;196.25;;;1.60;99.90;;;;;;5109818;28;20044;-60
2022/01/03 03:08:51;;;;;;;423.63;196.43;;;1.60;99.90;;;;;;5094358;28;20036;-61
2022/01/03 03:11:17;;;;;;;448.98;208.95;;;1.40;99.90;;;;;;5109642;28;20059;-61
2022/01/03 03:13:43;;;;;;;442.92;200.65;;;1.30;99.90;;;;;;5096987;28;20032;-60
2022/01/03 03:16:09;;;;;;;417.23;192.80;;;1.30;99.90;;;;;;5092793;28;20041;-60
2022/01/03 03:18:35;;;;;;;423.25;193.52;;;1.30;99.90;;;;;;5094071;28;20032;-60
2022/01/03 03:21:03;;;;;;;463.83;215.13;;;1.30;99.90;;;;;;5096103;28;20070;-61
2022/01/03 03:23:29;;;;;;;374.65;171.18;;;1.40;99.90;;;;;;5114206;28;20043;-60
2022/01/03 03:25:55;;;;;;;354.33;154.40;;;1.40;99.90;;;;;;5114405;28;20115;-60
2022/01/03 03:28:25;;;;;;;355.02;159.45;;;1.20;99.90;;;;;;5095972;28;20058;-60
2022/01/03 03:30:53;;;;;;;375.25;159.93;;;1.20;99.90;;;;;;5096061;28;20104;-60
2022/01/03 03:33:32;;;;;;;301.60;137.40;;;1.20;99.90;;;;;;5108999;28;20119;-60
2022/01/03 03:36:01;;;;;;;289.15;134.25;;;1.10;99.90;;;;;;5093999;28;20107;-61
2022/01/03 03:38:28;;;;;;;315.67;141.88;;;1.10;99.90;;;;;;5093707;28;20497;-60
2022/01/03 03:40:59;;;;;;;291.20;133.00;;;1.10;99.90;;;;;;5096167;28;20063;-60
2022/01/03 03:43:31;;;;;;;311.70;140.60;;;1.10;99.90;;;;;;5096035;28;20032;-60
2022/01/03 03:46:00;;;;;;;311.92;139.88;;;1.10;99.90;;;;;;5095913;28;20039;-61
2022/01/03 03:48:27;;;;;;;314.58;137.80;;;1.10;99.90;;;;;;5097375;28;20099;-60
2022/01/03 03:50:54;;;;;;;298.17;135.10;;;1.10;99.90;;;;;;5096090;28;20190;-60
2022/01/03 03:53:21;;;;;;;289.33;132.63;;;1.10;99.90;;;;;;5095587;28;20043;-60
2022/01/03 03:55:48;;;;;;;333.70;149.55;;;1.10;99.90;;;;;;5095949;28;20040;-60
2022/01/03 03:58:16;;;;;;;337.35;149.07;;;1.10;99.90;;;;;;5096031;28;20127;-60
2022/01/03 04:00:43;;;;;;;317.70;142.93;;;1.20;99.90;;;;;;5095768;28;20118;-60
2022/01/03 04:03:09;;;;;;;302.60;139.15;;;1.30;99.90;;;;;;5096894;28;20043;-60
2022/01/03 04:05:36;;;;;;;308.45;138.80;;;1.30;99.90;;;;;;5095796;28;20485;-60
2022/01/03 04:08:02;;;;;;;301.35;136.10;;;1.30;99.90;;;;;;5095555;28;20072;-60
2022/01/03 04:10:28;;;;;;;248.20;116.78;;;1.20;99.90;;;;;;5097026;28;20115;-60
2022/01/03 04:12:57;;;;;;;224.18;103.43;;;1.30;99.90;;;;;;5078583;28;20035;-60
2022/01/03 04:15:23;;;;;;;232.50;103.93;;;1.30;99.90;;;;;;5112555;28;20032;-60
2022/01/03 04:17:51;;;;;;;212.13;98.63;;;1.30;99.90;;;;;;5078659;28;20028;-60
2022/01/03 04:20:19;;;;;;;232.40;102.40;;;1.30;99.90;;;;;;5112507;28;20044;-60
2022/01/03 04:22:46;;;;;;;235.10;107.55;;;1.30;99.90;;;;;;5078609;28;20040;-60
2022/01/03 04:25:14;;;;;;;239.45;109.07;;;1.40;99.90;;;;;;5078631;28;20040;-60
2022/01/03 04:27:41;;;;;;;226.48;100.95;;;1.40;99.90;;;;;;5078443;28;20482;-60
2022/01/03 04:30:08;;;;;;;213.88;97.60;;;1.40;99.90;;;;;;5078491;28;20032;-60
2022/01/03 04:32:34;;;;;;;205.73;96.57;;;1.40;99.90;;;;;;5108485;28;20028;-60
2022/01/03 04:35:01;;;;;;;197.70;92.00;;;1.40;99.90;;;;;;5116899;28;20046;-60
2022/01/03 04:37:28;;;;;;;190.55;89.05;;;1.50;99.90;;;;;;5132673;27;20043;-60
2022/01/03 04:39:54;;;;;;;194.35;90.50;;;1.50;99.90;;;;;;5115640;28;20122;-60
2022/01/03 04:42:20;;;;;;;188.68;88.00;;;1.50;99.90;;;;;;5114876;28;20035;-60
2022/01/03 04:44:46;;;;;;;204.10;92.55;;;1.50;99.90;;;;;;5098394;28;20031;-60
2022/01/03 04:47:12;;;;;;;208.13;91.68;;;1.50;99.90;;;;;;5116747;28;20040;-60
2022/01/03 04:49:38;;;;;;;204.35;97.03;;;1.60;99.90;;;;;;5131115;27;20092;-60
2022/01/03 04:52:04;;;;;;;206.93;96.60;;;1.60;99.90;;;;;;5115367;28;20528;-61
2022/01/03 04:54:32;;;;;;;208.93;97.57;;;1.60;99.90;;;;;;5115405;28;20039;-61
2022/01/03 04:56:59;;;;;;;218.75;99.78;;;1.60;99.90;;;;;;5097817;28;20031;-61
2022/01/03 04:59:27;;;;;;;218.55;101.43;;;1.70;99.90;;;;;;5098175;28;20607;-62
2022/01/03 05:01:54;;;;;;;228.82;107.28;;;1.70;99.90;;;;;;5116266;28;20035;-61
2022/01/03 05:04:21;;;;;;;231.50;104.32;;;1.70;99.90;;;;;;5097830;28;20035;-63
2022/01/03 05:06:47;;;;;;;244.80;109.43;;;1.70;99.90;;;;;;5116011;27;20043;-63
2022/01/03 05:09:13;;;;;;;259.42;116.43;;;1.60;99.90;;;;;;5118537;27;20099;-62
2022/01/03 05:11:39;;;;;;;266.58;122.55;;;1.60;99.90;;;;;;5136627;27;20441;-61
2022/01/03 05:14:05;;;;;;;258.00;116.22;;;1.60;99.90;;;;;;5117263;27;20096;-61
2022/01/03 05:16:31;;;;;;;265.05;119.35;;;1.50;99.90;;;;;;5131874;27;20059;-61
2022/01/03 05:18:58;;;;;;;258.70;120.50;;;1.50;99.90;;;;;;5113792;27;20066;-61
2022/01/03 05:21:26;;;;;;;247.68;113.88;;;1.50;99.90;;;;;;5136456;27;20520;-61
2022/01/03 05:23:52;;;;;;;236.27;106.82;;;1.50;99.90;;;;;;5118001;27;20052;-62
2022/01/03 05:26:18;;;;;;;260.52;113.15;;;1.50;99.90;;;;;;5135089;27;20031;-61
2022/01/03 05:28:47;;;;;;;202.65;90.82;;;1.50;99.90;;;;;;5136641;27;20032;-61
2022/01/03 05:31:13;;;;;;;185.65;88.75;;;1.40;99.90;;;;;;5117603;27;20499;-62
2022/01/03 05:33:40;;;;;;;197.32;92.32;;;1.40;99.90;;;;;;5117844;27;20038;-61
2022/01/03 05:36:06;;;;;;;214.85;100.35;;;1.40;99.90;;;;;;5118136;27;20031;-62
2022/01/03 05:38:33;;;;;;;219.10;98.32;;;1.40;99.90;;;;;;5117811;27;20388;-62
2022/01/03 05:40:59;;;;;;;216.93;100.43;;;1.40;99.90;;;;;;5117679;27;20511;-61
2022/01/03 05:43:25;;;;;;;210.85;95.93;;;1.40;99.90;;;;;;5134766;27;20046;-61
2022/01/03 05:45:51;;;;;;;207.73;93.30;;;1.40;99.90;;;;;;5134701;27;20517;-61
2022/01/03 05:48:17;;;;;;;200.60;92.10;;;1.30;99.90;;;;;;5134782;27;20184;-61
2022/01/03 05:50:44;;;;;;;202.93;92.18;;;1.30;99.90;;;;;;5117942;27;20034;-61
2022/01/03 05:53:10;;;;;;;204.05;94.10;;;1.30;99.90;;;;;;5135821;27;20039;-61
2022/01/03 05:55:36;;;;;;;220.10;102.60;;;1.40;99.90;;;;;;5117872;27;20058;-61
2022/01/03 05:58:04;;;;;;;225.00;106.03;;;1.40;99.90;;;;;;5117635;27;20063;-61
2022/01/03 06:00:33;;;;;;;218.23;103.40;;;1.30;99.90;;;;;;5134320;27;20042;-61
2022/01/03 06:02:59;;;;;;;212.25;103.18;;;1.30;99.90;;;;;;5117048;27;20308;-61
2022/01/03 06:05:41;;;;;;;226.40;106.93;;;1.30;99.90;;;;;;5117514;27;20396;-61
2022/01/03 06:08:08;;;;;;;223.30;104.40;;;1.30;99.90;;;;;;5134383;27;20073;-61
2022/01/03 06:10:41;;;;;;;211.50;98.63;;;1.30;99.90;;;;;;5134426;27;20027;-61
2022/01/03 06:13:13;;;;;;;201.45;95.78;;;1.30;99.90;;;;;;5105495;28;20562;-61
2022/01/03 06:15:40;;;;;;;185.20;88.82;;;1.30;99.90;;;;;;5113618;28;20040;-61
2022/01/03 06:18:14;;;;;;;193.75;89.32;;;1.40;99.90;;;;;;5105649;27;20036;-62
2022/01/03 06:20:44;;;;;;;191.57;90.32;;;1.40;99.90;;;;;;5135543;27;20068;-61
2022/01/03 06:23:12;;;;;;;204.82;97.03;;;1.50;99.90;;;;;;5134005;27;20035;-61
2022/01/03 06:25:39;;;;;;;202.38;93.78;;;1.50;99.90;;;;;;5134128;27;20547;-62
2022/01/03 06:28:07;;;;;;;190.30;95.07;;;1.60;99.90;;;;;;5134002;27;20442;-61
2022/01/03 06:30:41;;;;;;;188.38;90.97;;;1.60;99.90;;;;;;5116935;27;20095;-61
2022/01/03 06:33:08;;;;;;;177.00;87.00;;;1.60;99.90;;;;;;5135813;27;20031;-61
2022/01/03 06:35:35;;;;;;;169.90;83.55;;;1.70;99.90;;;;;;5116978;28;20069;-61
2022/01/03 06:38:04;;;;;;;174.45;82.43;;;1.80;99.90;;;;;;5133988;27;20043;-61
2022/01/03 06:40:30;;;;;;;197.68;93.00;;;1.80;99.90;;;;;;5116992;28;20031;-61
2022/01/03 06:42:59;;;;;;;180.25;86.53;;;1.90;99.90;;;;;;5133649;28;20066;-62
2022/01/03 06:45:27;;;;;;;186.50;90.10;;;1.90;99.90;;;;;;5116658;28;20042;-61
2022/01/03 06:47:53;;;;;;;186.15;88.60;;;1.90;99.90;;;;;;5116947;28;20041;-62
2022/01/03 06:50:20;;;;;;;188.57;86.60;;;1.90;99.90;;;;;;5135356;28;20027;-62
2022/01/03 06:52:46;;;;;;;170.88;82.43;;;1.90;99.90;;;;;;5133738;28;20031;-61
2022/01/03 06:55:12;;;;;;;160.82;77.75;;;1.90;99.90;;;;;;5116864;28;20043;-62
2022/01/03 06:57:42;;;;;;;174.38;80.82;;;2.10;99.90;;;;;;5133757;28;20404;-62
2022/01/03 07:00:08;;;;;;;182.80;92.72;;;2.20;99.90;;;;;;5135170;28;20031;-61
2022/01/03 07:02:35;;;;;;;182.50;87.72;;;2.20;99.90;;;;;;5116691;28;20035;-62
2022/01/03 07:05:01;;;;;;;182.20;94.43;;;2.30;99.90;;;;;;5135050;28;20039;-61
2022/01/03 07:07:27;;;;;;;205.65;96.97;;;2.20;99.90;;;;;;5134970;28;20180;-61
2022/01/03 07:09:53;;;;;;;212.05;102.82;;;2.30;99.90;;;;;;5135155;28;20035;-61
2022/01/03 07:12:19;;;;;;;216.60;101.13;;;2.40;99.90;;;;;;5130590;28;20039;-61
2022/01/03 07:19:58;;;;;;;203.48;96.25;;;2.40;99.90;;;;;;5137591;27;20130;-61
2022/01/03 07:22:27;;;;;;;216.40;104.10;;;2.40;99.90;;;;;;5138813;27;20038;-61
2022/01/03 07:24:54;;;;;;;215.00;102.07;;;2.40;99.90;;;;;;5138718;27;20032;-61
2022/01/03 07:27:20;;;;;;;225.05;110.97;;;2.50;99.90;;;;;;5138851;27;20113;-61
2022/01/03 07:29:48;;;;;;;230.95;111.47;;;2.50;99.90;;;;;;5138764;27;20042;-61
2022/01/03 07:32:14;;;;;;;221.90;107.53;;;2.40;99.90;;;;;;5133680;27;20047;-61
2022/01/03 07:34:40;;;;;;;227.27;109.95;;;2.40;99.90;;;;;;5138655;27;20035;-61
2022/01/03 07:37:06;;;;;;;240.63;112.20;;;2.40;99.90;;;;;;5138605;27;20056;-61
2022/01/03 07:39:34;;;;;;;246.32;118.38;;;2.50;99.90;;;;;;5138245;27;20434;-61
2022/01/03 07:42:04;;;;;;;244.85;114.95;;;2.60;99.90;;;;;;5138335;27;20027;-61
2022/01/03 07:44:36;;;;;;;242.90;109.30;;;2.70;99.90;;;;;;5120003;27;20039;-61
2022/01/03 07:47:03;;;;;;;258.75;121.30;;;2.70;99.90;;;;;;5138262;27;20096;-61
2022/01/03 07:49:29;;;;;;;235.95;111.65;;;2.80;99.90;;;;;;5138664;27;20052;-61
2022/01/03 07:51:56;;;;;;;235.60;111.50;;;2.90;99.90;;;;;;5138319;27;20047;-60
2022/01/03 07:54:22;;;;;;;210.27;102.68;;;3.00;99.90;;;;;;5138351;27;20038;-61
2022/01/03 07:56:48;;;;;;;203.45;96.60;;;3.10;99.90;;;;;;5138228;27;20031;-61
2022/01/03 07:59:14;;;;;;;198.18;95.90;;;3.20;99.90;;;;;;5138050;27;20035;-61
2022/01/03 08:01:40;;;;;;;183.10;95.15;;;3.50;99.90;;;;;;5137638;27;20047;-62
2022/01/03 08:04:07;;;;;;;186.50;96.05;;;4.20;99.90;;;;;;5138126;27;20092;-62
2022/01/03 08:06:33;;;;;;;262.80;127.97;;;5.30;99.90;;;;;;5137843;27;20046;-62
2022/01/03 08:08:59;;;;;;;300.60;141.68;;;6.20;99.90;;;;;;5138150;27;20035;-62
2022/01/03 08:11:26;;;;;;;269.83;133.20;;;7.10;99.90;;;;;;5119302;27;20046;-62
2022/01/03 08:13:53;;;;;;;274.05;134.02;;;7.60;99.90;;;;;;5120252;27;20445;-62
2022/01/03 08:16:19;;;;;;;185.25;94.97;;;8.20;99.90;;;;;;5117302;28;20511;-62
2022/01/03 08:18:45;;;;;;;201.43;97.07;;;8.00;99.90;;;;;;5126325;27;20039;-62
2022/01/03 08:21:14;;;;;;;186.23;94.72;;;8.30;99.90;;;;;;5137804;27;20052;-63
2022/01/03 08:23:40;;;;;;;178.65;91.35;;;8.40;99.90;;;;;;5137475;27;20050;-63
2022/01/03 08:26:06;;;;;;;175.18;88.35;;;7.90;99.90;;;;;;5137706;27;20061;-63
2022/01/03 08:28:32;;;;;;;203.68;99.18;;;8.50;99.90;;;;;;5137806;27;20081;-64
2022/01/03 08:30:58;;;;;;;211.85;107.13;;;9.40;99.90;;;;;;5137408;27;20034;-64
2022/01/03 08:33:24;;;;;;;195.00;101.38;;;10.30;99.90;;;;;;5137351;27;20035;-63
2022/01/03 08:35:50;;;;;;;221.35;106.35;;;10.00;99.90;;;;;;5137556;27;20046;-63
2022/01/03 08:38:16;;;;;;;258.38;126.88;;;10.70;99.90;;;;;;5137366;27;20039;-64
2022/01/03 08:40:42;;;;;;;298.63;142.00;;;11.20;99.90;;;;;;5137341;27;20419;-64
2022/01/03 08:43:09;;;;;;;255.18;133.77;;;12.00;99.90;;;;;;5137264;27;20043;-63
2022/01/03 08:45:35;;;;;;;277.45;140.30;;;12.30;99.90;;;;;;5137341;27;20396;-63
2022/01/03 08:48:01;;;;;;;250.77;128.85;;;11.40;99.90;;;;;;5137741;27;20054;-62
2022/01/03 08:50:27;;;;;;;257.25;127.25;;;10.90;99.90;;;;;;5137234;27;20092;-62
2022/01/03 08:52:53;;;;;;;239.40;124.32;;;10.20;99.90;;;;;;5137257;27;20051;-62
2022/01/03 08:55:20;;;;;;;222.20;119.78;;;9.60;99.90;;;;;;5137205;27;20039;-62
2022/01/03 08:57:51;;;;;;;222.85;117.68;;;9.30;99.90;;;;;;5136958;27;20031;-62
2022/01/03 09:00:19;;;;;;;229.13;119.30;;;9.40;99.90;;;;;;5137057;27;20038;-62
2022/01/03 09:02:45;;;;;;;228.02;117.10;;;9.60;99.90;;;;;;5136834;27;20396;-62
2022/01/03 09:05:11;;;;;;;231.20;117.85;;;9.60;99.90;;;;;;5137007;27;20106;-62
2022/01/03 09:07:38;;;;;;;227.18;116.82;;;10.20;99.90;;;;;;5136682;27;20127;-63
2022/01/03 09:10:05;;;;;;;217.27;116.05;;;10.40;99.90;;;;;;5136959;27;20055;-62
2022/01/03 09:12:31;;;;;;;222.13;113.22;;;10.50;99.90;;;;;;5130805;27;20036;-62
2022/01/03 09:14:58;;;;;;;231.50;115.00;;;10.80;99.90;;;;;;5115933;28;20541;-62
2022/01/03 09:17:48;;;;;;;230.32;120.18;;;10.70;99.90;;;;;;5116268;28;20104;-62
2022/01/03 09:20:16;;;;;;;222.02;119.38;;;10.40;99.90;;;;;;5115882;28;20444;-62
2022/01/03 09:22:46;;;;;;;240.30;120.80;;;9.90;99.90;;;;;;5115904;28;20396;-62
2022/01/03 09:30:35;;;;;;;231.73;119.55;;;11.10;99.90;;;;;;5116000;28;20030;-62
2022/01/03 09:33:02;;;;;;;217.82;110.40;;;11.70;99.90;;;;;;5115556;28;20072;-63
2022/01/03 09:35:28;;;;;;;197.93;107.97;;;12.00;99.90;;;;;;5115249;28;20423;-62
2022/01/03 09:37:54;;;;;;;202.15;111.43;;;11.90;99.90;;;;;;5115595;28;20070;-62
2022/01/03 09:40:20;;;;;;;203.55;110.85;;;11.90;99.90;;;;;;5115683;28;20409;-62
2022/01/03 09:42:50;;;;;;;203.90;115.60;;;12.10;99.90;;;;;;5115314;28;20089;-62
2022/01/03 09:45:16;;;;;;;218.50;116.07;;;11.60;99.90;;;;;;5115709;28;20089;-61
2022/01/03 09:47:44;;;;;;;220.27;119.90;;;11.20;99.90;;;;;;5115316;28;20150;-61
2022/01/03 09:50:13;;;;;;;219.73;117.10;;;11.20;99.90;;;;;;5115301;28;20031;-62
2022/01/03 09:52:42;;;;;;;232.60;120.85;;;11.10;99.90;;;;;;5115449;28;20177;-61
2022/01/03 09:55:11;;;;;;;228.20;120.03;;;11.00;99.90;;;;;;5107226;28;20039;-61
2022/01/03 09:57:38;;;;;;;222.77;120.00;;;11.00;99.90;;;;;;5115770;28;20092;-61
2022/01/03 10:00:05;;;;;;;250.70;126.38;;;10.50;99.90;;;;;;5115241;28;20039;-61
2022/01/03 10:02:31;;;;;;;236.68;123.47;;;10.20;99.90;;;;;;5115157;28;20116;-61
2022/01/03 10:04:59;;;;;;;240.27;129.55;;;10.50;99.90;;;;;;5115169;28;20453;-61
2022/01/03 10:07:27;;;;;;;244.40;128.85;;;10.20;99.90;;;;;;5114789;28;20040;-61
2022/01/03 10:09:55;;;;;;;268.63;135.73;;;10.40;99.90;;;;;;5115260;28;20043;-61
2022/01/03 10:12:22;;;;;;;259.70;135.15;;;10.50;99.90;;;;;;5114878;28;20035;-61
2022/01/03 10:14:48;;;;;;;273.80;140.90;;;10.70;99.90;;;;;;5114997;28;20032;-61
2022/01/03 10:17:14;;;;;;;280.48;143.63;;;10.80;99.90;;;;;;5114837;28;20036;-61
2022/01/03 10:19:56;;;;;;;267.60;142.68;;;10.80;99.90;;;;;;5131573;27;20084;-61
2022/01/03 10:22:25;;;;;;;295.38;150.48;;;10.90;99.90;;;;;;5135704;27;20072;-61
2022/01/03 10:24:51;;;;;;;315.85;161.63;;;10.80;99.90;;;;;;5135446;27;20084;-61
2022/01/03 10:27:18;;;;;;;310.17;155.27;;;10.80;99.90;;;;;;5135363;27;20042;-61
2022/01/03 10:29:56;;;;;;;310.60;158.68;;;10.80;99.90;;;;;;5135618;27;20050;-61
2022/01/03 10:32:28;;;;;;;304.63;155.02;;;10.90;99.90;;;;;;5135331;27;20042;-61
2022/01/03 10:34:56;;;;;;;309.95;157.55;;;10.90;99.90;;;;;;5135409;27;20121;-61
2022/01/03 10:37:35;;;;;;;295.63;157.73;;;11.00;99.90;;;;;;5135375;27;20031;-61
2022/01/03 10:40:25;;;;;;;289.42;150.43;;;11.00;99.90;;;;;;5135221;27;20083;-61
2022/01/03 10:42:52;;;;;;;277.60;144.88;;;11.00;99.90;;;;;;5134843;28;20034;-61
2022/01/03 10:45:32;;;;;;;252.45;133.40;;;11.10;99.90;;;;;;5135185;28;20031;-61
2022/01/03 10:48:00;;;;;;;218.63;114.20;;;11.20;99.90;;;;;;5137162;27;20039;-62
2022/01/03 10:50:27;;;;;;;225.60;119.53;;;11.20;99.90;;;;;;5139753;27;20043;-62
2022/01/03 10:53:15;;;;;;;208.68;119.13;;;11.10;99.90;;;;;;5139423;27;20042;-61
2022/01/03 10:56:42;;;;;;;253.52;141.60;;;10.90;99.90;;;;;;5139679;27;20062;-62
2022/01/03 10:59:15;;;;;;;278.67;154.45;;;11.00;99.90;;;;;;5139079;27;20062;-62
2022/01/03 11:01:47;;;;;;;263.80;152.63;;;11.20;99.90;;;;;;5139671;27;20089;-62
2022/01/03 11:13:13;;;;;;;310.20;164.95;;;10.50;99.90;;;;;;5130369;27;20035;-62
2022/01/03 11:16:02;;;;;;;284.95;150.27;;;10.40;99.90;;;;;;5118317;28;20059;-62
2022/01/03 11:18:34;;;;;;;340.92;159.68;;;10.30;99.90;;;;;;5118187;28;20509;-62
2022/01/03 11:21:18;;;;;;;345.25;167.20;;;10.40;99.90;;;;;;5118127;28;20036;-62
2022/01/03 11:24:09;;;;;;;341.70;168.32;;;10.50;99.90;;;;;;5118220;28;20035;-62
2022/01/03 11:26:48;;;;;;;360.25;178.25;;;10.70;99.90;;;;;;5118472;28;20086;-62
2022/01/03 11:29:16;;;;;;;320.75;157.50;;;10.40;99.90;;;;;;5118172;28;20038;-61
2022/01/03 11:31:43;;;;;;;340.48;163.68;;;10.60;99.90;;;;;;5118545;28;20464;-61
2022/01/03 11:34:12;;;;;;;350.95;166.55;;;10.60;99.90;;;;;;5118235;28;20047;-62
2022/01/03 11:37:01;;;;;;;346.25;170.98;;;10.80;99.90;;;;;;5118165;28;20046;-61
2022/01/03 11:39:47;;;;;;;348.50;168.68;;;10.70;99.90;;;;;;5116946;28;20036;-62
2022/01/03 11:42:14;;;;;;;341.92;167.23;;;10.70;99.90;;;;;;5117582;28;20039;-61
2022/01/03 11:44:41;;;;;;;331.45;161.05;;;10.60;99.90;;;;;;5117944;28;20085;-61
2022/01/03 11:47:09;;;;;;;309.25;151.90;;;10.80;99.90;;;;;;5117930;28;20059;-62
2022/01/03 11:49:38;;;;;;;;;;;11.00;99.90;;;;;;5118259;28;20049;-62
2022/01/03 11:52:09;;;;;;;284.30;135.80;;;11.30;99.90;;;;;;5117829;28;19966;-62
2022/01/03 11:54:36;;;;;;;269.65;134.85;;;11.50;99.90;;;;;;5117674;28;20315;-62
2022/01/03 11:57:21;;;;;;;264.35;133.38;;;11.70;99.90;;;;;;5117669;28;20039;-62
2022/01/03 12:05:55;;;;;;;265.20;131.73;;;12.90;99.90;;;;;;5117428;28;20120;-62
2022/01/03 12:08:30;;;;;;;268.70;128.15;;;13.30;99.90;;;;;;5117357;28;20114;-62
2022/01/03 12:11:00;;;;;;;266.73;134.15;;;13.60;99.90;;;;;;5117426;28;20040;-62
2022/01/03 12:13:49;;;;;;;294.65;146.05;;;13.50;99.90;;;;;;5103838;28;20044;-62
2022/01/03 12:16:20;;;;;;;321.75;150.07;;;13.20;99.90;;;;;;5097081;28;20564;-62
2022/01/03 12:19:00;;;;;;;313.48;155.10;;;13.10;99.90;;;;;;5096612;28;20039;-62
2022/01/03 12:21:48;;;;;;;285.10;144.35;;;13.00;99.90;;;;;;5096751;28;20035;-61
2022/01/03 12:24:27;;;;;;;289.23;138.10;;;12.80;99.90;;;;;;5096267;28;20462;-62
2022/01/03 12:27:11;;;;;;;286.40;140.70;;;12.80;99.90;;;;;;5096594;28;20036;-62
2022/01/03 12:30:00;;;;;;;290.38;141.27;;;12.70;99.90;;;;;;5096646;28;20033;-61
2022/01/03 12:32:34;;;;;;;318.52;146.43;;;12.60;99.90;;;;;;5083784;28;20048;-62
2022/01/03 12:35:23;;;;;;;323.73;153.15;;;12.60;99.90;;;;;;5096638;28;20470;-61
2022/01/03 12:37:55;;;;;;;302.35;149.80;;;12.60;99.90;;;;;;5096648;28;20446;-61
2022/01/03 12:40:30;;;;;;;303.50;149.00;;;12.60;99.90;;;;;;5096341;28;20040;-61
2022/01/03 12:42:58;;;;;;;314.45;150.85;;;12.60;99.90;;;;;;5096213;28;20146;-62
2022/01/03 12:45:33;;;;;;;293.55;146.18;;;12.70;99.90;;;;;;5096437;28;20024;-62
2022/01/03 12:48:24;;;;;;;301.35;153.02;;;13.10;99.90;;;;;;5096224;28;20111;-62
2022/01/03 12:50:59;;;;;;;;;;;13.20;99.90;;;;;;5096774;28;20103;-61
2022/01/03 12:53:32;;;;;;;266.08;133.57;;;13.10;99.90;;;;;;5096112;28;20297;-62
2022/01/03 12:56:05;;;;;;;310.52;139.27;;;13.00;99.90;;;;;;5096047;28;20059;-61
2022/01/03 12:58:32;;;;;;;307.60;147.20;;;12.80;99.90;;;;;;5096285;28;20046;-62